Time;durP1;ratioP1;P1;durP2;ratioP2;P2;SDS_P1;SDS_P2;PMS_P1;PMS_P2;Temp;Humidity;BMP_temperature;BMP_pressure;BME280_temperature;BME280_humidity;BME280_pressure;Samples;Min_cycle;Max_cycle;Signal;HPM_P1;HPM_P2
2021/08/19 00:00:17;;;;;;;1.50;1.40;;;17.70;99.90;;;;;;4995469;28;20176;-77
2021/08/19 00:02:43;;;;;;;3.93;1.73;;;17.60;99.90;;;;;;4995620;28;20184;-77
2021/08/19 00:05:09;;;;;;;2.13;1.80;;;17.60;99.90;;;;;;4978208;28;20195;-77
2021/08/19 00:07:35;;;;;;;1.50;1.40;;;17.60;99.90;;;;;;4977818;28;20673;-77
2021/08/19 00:10:01;;;;;;;1.70;1.50;;;17.50;99.90;;;;;;4995597;28;20183;-78
2021/08/19 00:12:26;;;;;;;1.60;1.50;;;17.60;99.90;;;;;;4995036;28;20711;-78
2021/08/19 00:14:52;;;;;;;1.77;1.57;;;17.50;99.90;;;;;;4977584;28;20204;-78
2021/08/19 00:17:21;;;;;;;1.57;1.47;;;17.40;99.90;;;;;;4995557;28;20176;-77
2021/08/19 00:19:47;;;;;;;1.67;1.53;;;17.40;99.90;;;;;;4995405;28;20200;-77
2021/08/19 00:22:12;;;;;;;2.23;1.40;;;17.50;99.90;;;;;;4981707;28;20212;-77
2021/08/19 00:24:38;;;;;;;1.30;1.20;;;17.50;99.90;;;;;;4998955;28;20208;-78
2021/08/19 00:27:04;;;;;;;1.50;1.40;;;17.50;99.90;;;;;;4981739;28;20645;-77
2021/08/19 00:29:30;;;;;;;2.27;1.97;;;17.50;99.90;;;;;;4999262;28;20186;-78
2021/08/19 00:31:55;;;;;;;1.57;1.47;;;17.60;99.90;;;;;;4982268;28;20266;-77
2021/08/19 00:34:21;;;;;;;2.80;1.53;;;17.60;99.90;;;;;;4999580;28;20210;-77
2021/08/19 00:36:47;;;;;;;1.90;1.70;;;17.60;99.90;;;;;;4998960;28;20200;-78
2021/08/19 00:39:12;;;;;;;2.30;2.10;;;17.50;99.90;;;;;;4999282;28;20175;-77
2021/08/19 00:41:38;;;;;;;2.60;1.90;;;17.60;99.90;;;;;;4999306;28;20176;-78
2021/08/19 00:44:05;;;;;;;3.47;1.90;;;17.60;99.90;;;;;;4981590;28;20191;-77
2021/08/19 00:46:33;;;;;;;1.60;1.50;;;17.60;99.90;;;;;;4998906;28;20218;-78
2021/08/19 00:49:05;;;;;;;3.87;1.90;;;17.60;99.90;;;;;;4981514;28;20546;-78
2021/08/19 00:51:42;;;;;;;4.57;1.60;;;17.60;99.90;;;;;;4981510;28;20189;-77
2021/08/19 00:54:11;;;;;;;1.50;1.40;;;17.50;99.90;;;;;;4998790;28;20179;-78
2021/08/19 00:56:37;;;;;;;1.60;1.50;;;17.50;99.90;;;;;;4987616;28;20220;-77
2021/08/19 00:59:10;;;;;;;1.40;1.30;;;17.50;99.90;;;;;;4998917;28;20654;-78
2021/08/19 01:01:36;;;;;;;1.47;1.37;;;17.60;99.90;;;;;;4981060;28;20647;-77
2021/08/19 01:04:06;;;;;;;1.43;1.33;;;17.60;99.90;;;;;;4980970;28;20183;-78
2021/08/19 01:06:33;;;;;;;2.27;1.40;;;17.50;99.90;;;;;;4998596;28;20281;-78
2021/08/19 01:08:58;;;;;;;2.03;1.50;;;17.50;99.90;;;;;;4981090;28;20179;-77
2021/08/19 01:11:24;;;;;;;2.67;1.53;;;17.50;99.90;;;;;;4998838;28;20188;-78
2021/08/19 01:13:50;;;;;;;1.67;1.40;;;17.30;99.90;;;;;;4998975;28;20259;-77
2021/08/19 01:16:18;;;;;;;2.00;1.80;;;17.20;99.90;;;;;;4998459;28;20700;-77
2021/08/19 01:18:45;;;;;;;2.97;1.73;;;17.10;99.90;;;;;;4998322;28;20218;-77
2021/08/19 01:21:12;;;;;;;2.33;1.70;;;17.00;99.90;;;;;;4998419;28;20176;-78
2021/08/19 01:23:38;;;;;;;2.03;1.80;;;17.00;99.90;;;;;;4964699;28;20184;-78
2021/08/19 01:26:08;;;;;;;1.60;1.50;;;17.00;99.90;;;;;;4998509;28;20624;-78
2021/08/19 01:28:35;;;;;;;1.60;1.50;;;17.10;99.90;;;;;;4998411;28;20171;-78
2021/08/19 01:31:01;;;;;;;1.43;1.33;;;17.10;99.90;;;;;;4998580;28;20198;-77
2021/08/19 01:33:27;;;;;;;2.13;1.93;;;17.10;99.90;;;;;;4997123;28;20172;-77
2021/08/19 01:35:53;;;;;;;2.20;1.93;;;17.00;99.90;;;;;;4997850;28;20326;-77
2021/08/19 01:38:27;;;;;;;1.97;1.87;;;17.00;99.90;;;;;;4978519;28;20670;-78
2021/08/19 01:40:53;;;;;;;1.70;1.60;;;16.90;99.90;;;;;;4988753;28;20250;-78
2021/08/19 01:43:19;;;;;;;2.10;1.67;;;16.80;99.90;;;;;;4979544;28;20195;-77
2021/08/19 01:45:46;;;;;;;1.73;1.63;;;16.90;99.90;;;;;;4979356;28;20749;-76
2021/08/19 01:48:14;;;;;;;3.03;2.13;;;16.90;99.90;;;;;;4978294;28;20179;-78
2021/08/19 01:50:40;;;;;;;1.67;1.57;;;16.90;99.90;;;;;;4977704;28;20190;-78
2021/08/19 01:53:06;;;;;;;2.87;1.90;;;16.80;99.90;;;;;;4995378;28;20175;-79
2021/08/19 01:55:31;;;;;;;1.60;1.50;;;16.80;99.90;;;;;;4979081;28;20588;-78
2021/08/19 01:57:57;;;;;;;4.53;1.90;;;16.80;99.90;;;;;;4979085;28;20184;-77
2021/08/19 02:00:23;;;;;;;2.00;1.80;;;16.90;99.90;;;;;;4996656;28;20673;-77
2021/08/19 02:02:48;;;;;;;2.83;1.77;;;17.00;99.90;;;;;;4995240;28;20199;-78
2021/08/19 02:05:14;;;;;;;2.40;1.57;;;16.90;99.90;;;;;;4976991;28;20206;-78
2021/08/19 02:07:39;;;;;;;7.63;1.90;;;16.90;99.90;;;;;;4994125;28;20552;-79
2021/08/19 02:10:07;;;;;;;1.97;1.87;;;16.90;99.90;;;;;;4989457;28;20189;-78
2021/08/19 02:12:33;;;;;;;1.87;1.50;;;16.90;99.90;;;;;;4976105;28;20196;-79
2021/08/19 02:14:59;;;;;;;1.70;1.60;;;17.00;99.90;;;;;;4976108;28;20211;-79
2021/08/19 02:17:25;;;;;;;1.90;1.80;;;17.00;99.90;;;;;;4962325;28;20176;-77
2021/08/19 02:19:51;;;;;;;1.83;1.73;;;17.00;99.90;;;;;;4976328;28;20184;-78
2021/08/19 02:22:16;;;;;;;1.70;1.60;;;17.00;99.90;;;;;;4960856;28;20267;-77
2021/08/19 02:24:42;;;;;;;2.50;2.30;;;17.00;99.90;;;;;;4958182;28;20207;-77
2021/08/19 02:27:07;;;;;;;5.50;2.23;;;17.00;99.90;;;;;;4973397;28;20195;-77
2021/08/19 02:29:33;;;;;;;2.13;1.90;;;16.90;99.90;;;;;;4959491;28;20180;-77
2021/08/19 02:31:59;;;;;;;1.87;1.77;;;16.80;99.90;;;;;;4982126;28;20642;-77
2021/08/19 02:34:25;;;;;;;2.00;1.83;;;16.80;99.90;;;;;;4974254;28;20183;-77
2021/08/19 02:36:50;;;;;;;2.07;1.90;;;16.70;99.90;;;;;;4994195;28;20286;-77
2021/08/19 02:39:16;;;;;;;2.00;1.80;;;16.70;99.90;;;;;;4976040;28;20210;-78
2021/08/19 02:41:41;;;;;;;4.20;3.27;;;16.70;99.90;;;;;;4994187;28;20253;-77
2021/08/19 02:44:07;;;;;;;4.47;3.20;;;16.70;99.90;;;;;;4978089;28;20199;-77
2021/08/19 02:46:33;;;;;;;4.00;3.20;;;16.80;99.90;;;;;;4976739;28;20229;-77
2021/08/19 02:48:59;;;;;;;3.80;2.90;;;16.80;99.90;;;;;;4995358;28;20179;-77
2021/08/19 02:51:24;;;;;;;3.37;2.10;;;16.90;99.90;;;;;;4995613;28;20643;-77
2021/08/19 02:53:50;;;;;;;3.03;2.40;;;16.90;99.90;;;;;;4995124;28;20262;-77
2021/08/19 02:56:16;;;;;;;2.93;2.73;;;16.90;99.90;;;;;;4977865;28;20214;-77
2021/08/19 02:58:41;;;;;;;3.10;2.77;;;16.90;99.90;;;;;;4995245;28;20543;-77
2021/08/19 03:01:07;;;;;;;3.27;2.97;;;16.90;99.90;;;;;;4994861;28;20634;-77
2021/08/19 03:03:33;;;;;;;3.47;3.17;;;16.80;99.90;;;;;;4992322;28;20658;-77
2021/08/19 03:05:58;;;;;;;3.50;2.40;;;16.80;99.90;;;;;;4977605;28;20230;-77
2021/08/19 03:08:24;;;;;;;3.60;2.90;;;16.90;99.90;;;;;;4977718;28;20210;-77
2021/08/19 03:10:49;;;;;;;3.57;2.67;;;16.90;99.90;;;;;;4977565;28;20187;-77
2021/08/19 03:13:15;;;;;;;3.87;3.17;;;16.90;99.90;;;;;;4994815;28;20672;-77
2021/08/19 03:15:41;;;;;;;3.50;2.90;;;16.90;99.90;;;;;;4994771;28;20206;-77
2021/08/19 03:18:06;;;;;;;3.37;2.90;;;16.90;99.90;;;;;;4977350;28;20183;-77
2021/08/19 03:20:32;;;;;;;2.87;2.40;;;16.90;99.90;;;;;;4995001;28;20180;-77
2021/08/19 03:22:58;;;;;;;3.70;2.97;;;16.90;99.90;;;;;;4977215;28;20638;-77
2021/08/19 03:25:25;;;;;;;3.27;2.83;;;16.90;99.90;;;;;;4977146;28;20241;-77
2021/08/19 03:27:57;;;;;;;3.00;2.73;;;16.90;99.90;;;;;;4994440;28;20179;-77
2021/08/19 03:30:22;;;;;;;2.83;2.53;;;16.90;99.90;;;;;;5027635;23;20219;-80
2021/08/19 03:32:48;;;;;;;3.77;2.67;;;16.80;99.90;;;;;;5017901;28;20178;-82
2021/08/19 03:35:14;;;;;;;1.73;1.63;;;16.90;99.90;;;;;;5018031;28;20210;-81
2021/08/19 03:37:40;;;;;;;2.60;2.40;;;16.80;99.90;;;;;;5000289;28;20178;-81
2021/08/19 03:40:07;;;;;;;3.40;2.80;;;16.80;99.90;;;;;;5000142;28;20190;-82
2021/08/19 03:42:35;;;;;;;3.33;2.97;;;16.80;99.90;;;;;;5018393;28;20186;-81
2021/08/19 03:45:01;;;;;;;2.63;2.40;;;16.80;99.90;;;;;;5000660;28;20178;-81
2021/08/19 03:47:26;;;;;;;2.60;2.30;;;16.70;99.90;;;;;;5018417;28;20183;-81
2021/08/19 03:49:53;;;;;;;4.40;2.03;;;16.80;99.90;;;;;;4999923;28;21014;-82
2021/08/19 03:52:19;;;;;;;2.30;2.10;;;16.80;99.90;;;;;;5016475;28;20543;-80
2021/08/19 03:54:45;;;;;;;3.13;2.40;;;16.80;99.90;;;;;;4995756;28;20198;-80
2021/08/19 03:57:10;;;;;;;2.43;2.13;;;16.80;99.90;;;;;;4996578;28;20175;-80
2021/08/19 03:59:36;;;;;;;2.20;2.00;;;16.90;99.90;;;;;;5014375;28;20186;-81
2021/08/19 04:02:02;;;;;;;2.43;2.23;;;16.90;99.90;;;;;;4986662;28;20179;-81
2021/08/19 04:04:28;;;;;;;1.80;1.70;;;16.90;99.90;;;;;;4999590;28;20179;-81
2021/08/19 04:06:53;;;;;;;2.57;2.20;;;16.90;99.90;;;;;;5011863;28;20188;-82
2021/08/19 04:09:19;;;;;;;1.97;1.87;;;16.90;99.90;;;;;;4995419;28;20210;-81
2021/08/19 04:11:44;;;;;;;2.30;2.10;;;16.80;99.90;;;;;;5012868;28;20198;-81
2021/08/19 04:14:11;;;;;;;2.17;1.80;;;16.80;99.90;;;;;;5014075;28;20186;-81
2021/08/19 04:16:37;;;;;;;2.77;1.83;;;16.80;99.90;;;;;;4995704;28;20569;-80
2021/08/19 04:19:02;;;;;;;2.10;1.77;;;16.90;99.90;;;;;;5021110;28;20178;-82
2021/08/19 04:21:28;;;;;;;2.93;2.00;;;16.80;99.90;;;;;;5006135;28;20365;-80
2021/08/19 04:23:54;;;;;;;3.10;2.00;;;16.70;99.90;;;;;;5021690;28;20198;-81
2021/08/19 04:26:19;;;;;;;3.00;2.03;;;16.60;99.90;;;;;;5014884;28;20190;-81
2021/08/19 04:28:45;;;;;;;1.87;1.60;;;16.60;99.90;;;;;;5014473;28;20273;-81
2021/08/19 04:31:11;;;;;;;2.70;2.27;;;16.60;99.90;;;;;;4996564;28;20222;-81
2021/08/19 04:33:36;;;;;;;1.70;1.60;;;16.70;99.90;;;;;;4996583;28;20182;-83
2021/08/19 04:36:03;;;;;;;1.93;1.80;;;16.80;99.90;;;;;;4996565;28;20689;-80
2021/08/19 04:38:29;;;;;;;1.80;1.70;;;16.80;99.90;;;;;;4996269;28;20171;-80
2021/08/19 04:40:55;;;;;;;2.33;2.10;;;16.70;99.90;;;;;;5013950;28;20194;-81
2021/08/19 04:43:21;;;;;;;2.00;1.80;;;16.70;99.90;;;;;;5014013;28;20182;-81
2021/08/19 04:45:48;;;;;;;3.97;2.07;;;16.80;99.90;;;;;;4996210;28;20178;-81
2021/08/19 04:48:13;;;;;;;5.67;2.47;;;16.80;99.90;;;;;;4996149;28;20649;-81
2021/08/19 04:50:39;;;;;;;2.23;2.03;;;16.80;99.90;;;;;;4996135;28;20203;-80
2021/08/19 04:53:05;;;;;;;2.77;2.27;;;16.90;99.90;;;;;;5014107;28;20265;-81
2021/08/19 04:55:31;;;;;;;2.57;2.20;;;16.80;99.90;;;;;;5013265;28;20202;-80
2021/08/19 04:57:57;;;;;;;3.40;2.00;;;16.70;99.90;;;;;;5013825;28;20171;-81
2021/08/19 05:00:22;;;;;;;2.50;2.30;;;16.60;99.90;;;;;;4996084;28;20210;-81
2021/08/19 05:02:48;;;;;;;2.90;2.37;;;16.60;99.90;;;;;;5013686;28;20168;-81
2021/08/19 05:05:14;;;;;;;2.20;2.00;;;16.60;99.90;;;;;;4996147;28;20181;-81
2021/08/19 05:07:39;;;;;;;3.57;2.33;;;16.70;99.90;;;;;;4997534;28;20171;-81
2021/08/19 05:10:05;;;;;;;3.27;2.73;;;16.70;99.90;;;;;;5017042;28;20555;-81
2021/08/19 05:12:31;;;;;;;2.50;2.30;;;16.70;99.90;;;;;;4999475;28;20575;-81
2021/08/19 05:14:57;;;;;;;2.03;1.80;;;16.80;99.90;;;;;;5017185;28;20236;-81
2021/08/19 05:17:22;;;;;;;2.17;1.97;;;16.80;99.90;;;;;;5017037;28;20179;-80
2021/08/19 05:19:48;;;;;;;2.13;1.93;;;16.70;99.90;;;;;;5016800;28;20174;-81
2021/08/19 05:22:14;;;;;;;2.23;1.87;;;16.70;99.90;;;;;;4999807;28;20181;-80
2021/08/19 05:24:39;;;;;;;2.73;1.80;;;16.70;99.90;;;;;;4999314;28;20178;-81
2021/08/19 05:27:05;;;;;;;2.37;1.63;;;16.50;99.90;;;;;;4999497;28;20175;-80
2021/08/19 05:29:31;;;;;;;2.23;1.83;;;16.60;99.90;;;;;;4999136;28;20181;-81
2021/08/19 05:31:56;;;;;;;3.03;2.20;;;16.50;99.90;;;;;;4999237;28;20353;-81
2021/08/19 05:34:22;;;;;;;2.10;1.90;;;16.60;99.90;;;;;;5016375;28;20167;-81
2021/08/19 05:36:48;;;;;;;2.10;1.97;;;16.70;99.90;;;;;;4998127;28;20199;-81
2021/08/19 05:39:13;;;;;;;3.23;1.90;;;16.80;99.90;;;;;;5014614;28;20179;-81
2021/08/19 05:41:39;;;;;;;3.17;2.30;;;16.80;99.90;;;;;;5024115;28;20277;-81
2021/08/19 05:44:05;;;;;;;2.17;1.97;;;16.80;99.90;;;;;;4999129;28;20550;-81
2021/08/19 05:46:30;;;;;;;2.07;1.93;;;16.90;99.90;;;;;;4998884;28;20226;-81
2021/08/19 05:48:56;;;;;;;1.97;1.73;;;16.90;99.90;;;;;;4994750;28;20265;-81
2021/08/19 05:51:22;;;;;;;2.60;2.40;;;16.90;99.90;;;;;;4986493;28;20620;-81
2021/08/19 05:53:48;;;;;;;2.47;2.27;;;16.90;99.90;;;;;;4988253;28;20183;-82
2021/08/19 05:56:13;;;;;;;2.60;2.17;;;17.00;99.90;;;;;;5018902;28;20191;-81
2021/08/19 05:58:39;;;;;;;2.10;1.90;;;16.90;99.90;;;;;;5016571;28;20174;-81
2021/08/19 06:01:05;;;;;;;2.37;2.17;;;17.00;99.90;;;;;;5016245;28;20230;-80
2021/08/19 06:03:30;;;;;;;2.53;2.33;;;17.00;99.90;;;;;;5016852;28;20198;-80
2021/08/19 06:05:56;;;;;;;2.20;1.80;;;17.10;99.90;;;;;;4999070;28;20261;-81
2021/08/19 06:08:22;;;;;;;2.30;2.10;;;17.00;99.90;;;;;;4999289;28;20190;-80
2021/08/19 06:10:47;;;;;;;1.97;1.80;;;17.00;99.90;;;;;;5016367;28;20204;-82
2021/08/19 06:13:13;;;;;;;2.73;1.77;;;17.00;99.90;;;;;;5016234;28;20175;-81
2021/08/19 06:15:39;;;;;;;2.43;2.23;;;16.90;99.90;;;;;;4995855;28;20368;-81
2021/08/19 06:18:05;;;;;;;3.37;2.10;;;16.90;99.90;;;;;;4994371;28;20577;-82
2021/08/19 06:20:31;;;;;;;2.30;2.03;;;16.90;99.90;;;;;;4994360;28;20210;-83
2021/08/19 06:22:56;;;;;;;2.20;1.97;;;16.80;99.90;;;;;;4998504;28;20171;-82
2021/08/19 06:25:23;;;;;;;2.33;2.07;;;16.90;99.90;;;;;;4987893;28;20218;-85
2021/08/19 06:27:49;;;;;;;3.07;2.27;;;16.90;99.90;;;;;;4996715;28;20179;-83
2021/08/19 06:30:15;;;;;;;3.10;2.23;;;16.80;99.90;;;;;;5016528;28;20242;-81
2021/08/19 06:32:41;;;;;;;2.40;2.20;;;16.90;99.90;;;;;;5006961;28;20550;-80
2021/08/19 06:35:08;;;;;;;2.40;2.20;;;16.80;99.90;;;;;;5007010;28;20195;-82
2021/08/19 06:37:34;;;;;;;2.47;2.17;;;16.70;99.90;;;;;;5004714;28;20545;-82
2021/08/19 06:40:00;;;;;;;4.00;2.57;;;16.70;99.90;;;;;;4991290;28;20253;-83
2021/08/19 06:42:25;;;;;;;2.70;2.10;;;16.80;99.90;;;;;;5011824;28;20179;-82
2021/08/19 06:44:51;;;;;;;2.70;2.23;;;16.80;99.90;;;;;;5007926;28;20255;-82
2021/08/19 06:47:16;;;;;;;2.50;2.30;;;16.80;99.90;;;;;;5012153;28;20257;-83
2021/08/19 06:49:44;;;;;;;2.90;2.47;;;16.80;99.90;;;;;;5005984;28;20795;-83
2021/08/19 06:52:10;;;;;;;3.40;2.40;;;16.80;99.90;;;;;;4992209;28;20564;-82
2021/08/19 06:54:36;;;;;;;2.63;2.43;;;16.80;99.90;;;;;;4990007;28;20187;-83
2021/08/19 06:57:01;;;;;;;2.47;2.20;;;16.80;99.90;;;;;;4994203;28;20198;-82
2021/08/19 06:59:28;;;;;;;2.40;2.20;;;16.80;99.90;;;;;;5003591;28;20179;-82
2021/08/19 07:01:54;;;;;;;2.37;2.00;;;16.90;99.90;;;;;;4996792;28;20194;-82
2021/08/19 07:04:19;;;;;;;1.87;1.77;;;17.00;99.90;;;;;;5010972;28;20171;-81
2021/08/19 07:06:48;;;;;;;3.03;2.30;;;17.10;99.90;;;;;;4990966;28;20183;-82
2021/08/19 07:09:14;;;;;;;4.07;2.37;;;17.10;99.90;;;;;;5008748;28;20182;-84
2021/08/19 07:11:41;;;;;;;2.47;2.20;;;17.10;99.90;;;;;;5005484;28;20783;-82
2021/08/19 07:14:06;;;;;;;5.13;2.40;;;17.20;99.90;;;;;;5006178;28;20657;-82
2021/08/19 07:16:33;;;;;;;2.63;2.40;;;17.30;99.90;;;;;;5004967;28;20222;-81
2021/08/19 07:18:58;;;;;;;3.53;2.53;;;17.20;99.90;;;;;;5005402;28;20184;-82
2021/08/19 07:21:24;;;;;;;2.93;2.60;;;17.20;99.90;;;;;;5005071;28;20265;-83
2021/08/19 07:23:50;;;;;;;2.87;2.20;;;17.30;99.90;;;;;;5001493;28;20183;-84
2021/08/19 07:26:16;;;;;;;2.87;2.60;;;17.20;99.90;;;;;;5007610;28;20184;-82
2021/08/19 07:28:42;;;;;;;2.67;2.47;;;17.30;99.90;;;;;;5005911;28;20265;-84
2021/08/19 07:31:08;;;;;;;3.83;2.50;;;17.30;99.90;;;;;;4990228;28;20222;-84
2021/08/19 07:33:34;;;;;;;2.93;2.40;;;17.40;99.90;;;;;;5008771;28;20183;-83
2021/08/19 07:35:59;;;;;;;3.50;2.40;;;17.40;99.90;;;;;;5008363;28;20290;-83
2021/08/19 07:38:25;;;;;;;2.50;1.80;;;17.40;99.90;;;;;;5010966;28;20541;-83
2021/08/19 07:40:51;;;;;;;3.13;2.50;;;17.50;99.90;;;;;;5006543;28;20245;-84
2021/08/19 07:43:16;;;;;;;2.70;2.50;;;17.50;99.90;;;;;;5005783;28;20200;-82
2021/08/19 07:45:42;;;;;;;3.33;2.00;;;17.50;99.90;;;;;;5008683;28;20934;-82
2021/08/19 07:48:10;;;;;;;2.30;2.10;;;17.50;99.90;;;;;;5002335;28;20184;-83
2021/08/19 07:50:37;;;;;;;2.57;2.37;;;17.50;99.90;;;;;;5013368;28;20208;-83
2021/08/19 07:53:03;;;;;;;4.20;2.33;;;17.50;99.90;;;;;;4991536;28;20227;-84
2021/08/19 07:55:29;;;;;;;3.60;2.23;;;17.60;99.90;;;;;;5003184;28;20210;-82
2021/08/19 07:57:55;;;;;;;3.40;2.43;;;17.60;99.90;;;;;;5008923;28;20175;-83
2021/08/19 08:00:23;;;;;;;5.70;2.10;;;17.60;99.90;;;;;;5006332;28;20256;-83
2021/08/19 08:02:51;;;;;;;2.97;2.00;;;17.70;99.90;;;;;;4991603;28;20583;-83
2021/08/19 08:05:17;;;;;;;3.60;2.20;;;17.70;99.90;;;;;;5003899;28;20184;-82
2021/08/19 08:07:43;;;;;;;2.33;2.13;;;17.80;99.90;;;;;;4986662;28;20270;-81
2021/08/19 08:10:09;;;;;;;3.03;2.17;;;17.80;99.90;;;;;;5010796;28;20366;-83
2021/08/19 08:12:34;;;;;;;3.73;2.70;;;17.80;99.90;;;;;;4988717;28;20211;-84
2021/08/19 08:15:00;;;;;;;2.40;2.20;;;17.80;99.90;;;;;;5010582;28;20180;-83
2021/08/19 08:17:28;;;;;;;4.27;2.20;;;17.80;99.90;;;;;;5005569;28;20262;-83
2021/08/19 08:19:54;;;;;;;2.50;2.07;;;17.90;99.90;;;;;;5006535;28;20203;-84
2021/08/19 08:22:20;;;;;;;5.17;2.33;;;17.90;99.90;;;;;;4991312;28;20171;-82
2021/08/19 08:24:46;;;;;;;2.00;1.90;;;17.90;99.90;;;;;;5006608;28;20672;-83
2021/08/19 08:27:11;;;;;;;3.00;2.47;;;17.90;99.90;;;;;;5009899;28;20180;-84
2021/08/19 08:29:37;;;;;;;2.93;2.40;;;17.90;99.90;;;;;;5012461;28;20178;-84
2021/08/19 08:32:07;;;;;;;2.70;2.00;;;17.90;99.90;;;;;;5007487;28;20180;-83
2021/08/19 08:34:37;;;;;;;5.20;2.63;;;17.80;99.90;;;;;;5007860;28;20179;-84
2021/08/19 08:37:03;;;;;;;3.43;2.33;;;17.80;99.90;;;;;;5003675;28;20200;-83
2021/08/19 08:39:31;;;;;;;2.40;2.20;;;17.90;99.90;;;;;;5009727;28;20574;-83
2021/08/19 08:41:57;;;;;;;3.80;2.30;;;17.90;99.90;;;;;;4993503;28;20276;-83
2021/08/19 08:44:28;;;;;;;2.30;2.10;;;18.00;99.90;;;;;;5005539;28;20209;-82
2021/08/19 08:46:55;;;;;;;2.23;2.03;;;18.10;99.90;;;;;;5013894;28;20258;-82
2021/08/19 08:49:24;;;;;;;3.00;2.17;;;18.20;99.90;;;;;;5009554;28;20191;-84
2021/08/19 08:51:58;;;;;;;2.63;2.40;;;18.20;99.90;;;;;;4996059;28;20596;-83
2021/08/19 08:54:25;;;;;;;2.30;2.10;;;18.20;99.90;;;;;;5015856;28;20195;-84
2021/08/19 08:56:51;;;;;;;3.20;2.10;;;18.30;99.90;;;;;;4990038;28;20200;-83
2021/08/19 08:59:17;;;;;;;2.27;2.07;;;18.30;99.90;;;;;;5009119;28;20186;-83
2021/08/19 09:01:42;;;;;;;2.20;2.00;;;18.40;99.90;;;;;;4993736;28;20205;-83
2021/08/19 09:04:08;;;;;;;2.50;2.10;;;18.50;99.90;;;;;;5006556;28;20214;-84
2021/08/19 09:06:36;;;;;;;2.30;2.10;;;18.60;99.90;;;;;;5006235;28;20175;-84
2021/08/19 09:09:23;;;;;;;2.67;2.10;;;18.60;99.90;;;;;;5007516;28;20179;-83
2021/08/19 09:12:07;;;;;;;1.73;1.63;;;18.60;99.90;;;;;;4988731;28;20250;-81
2021/08/19 09:14:35;;;;;;;2.27;1.40;;;18.70;99.90;;;;;;5015250;28;20171;-85
2021/08/19 09:17:02;;;;;;;1.67;1.57;;;18.70;99.90;;;;;;5004221;28;20203;-83
2021/08/19 09:19:34;;;;;;;2.93;1.77;;;18.80;99.90;;;;;;4985999;28;20253;-83
2021/08/19 09:22:03;;;;;;;2.40;2.10;;;18.80;99.90;;;;;;5007389;28;20179;-83
2021/08/19 09:24:30;;;;;;;5.17;2.10;;;18.80;99.90;;;;;;5005873;28;20179;-83
2021/08/19 09:27:10;;;;;;;3.40;1.70;;;18.80;99.90;;;;;;5007283;28;20187;-84
2021/08/19 09:29:35;;;;;;;1.63;1.40;;;18.80;99.90;;;;;;5002062;28;20184;-82
2021/08/19 09:34:29;;;;;;;1.37;1.20;;;18.90;99.90;;;;;;4952736;29;20743;-77
2021/08/19 09:37:08;;;;;;;2.70;1.50;;;19.00;99.90;;;;;;4953060;29;20260;-77
2021/08/19 09:39:43;;;;;;;1.20;1.10;;;18.90;99.90;;;;;;4953837;29;20564;-78
2021/08/19 09:42:10;;;;;;;1.60;1.50;;;19.00;99.90;;;;;;4954347;29;20181;-78
2021/08/19 09:44:42;;;;;;;1.33;1.20;;;19.00;99.90;;;;;;4940698;29;20198;-77
2021/08/19 09:47:28;;;;;;;1.60;1.20;;;19.10;99.90;;;;;;4953277;29;20192;-77
2021/08/19 09:50:09;;;;;;;1.30;1.20;;;19.10;99.90;;;;;;4953831;29;20184;-77
2021/08/19 09:52:35;;;;;;;2.43;1.43;;;19.20;99.90;;;;;;4936054;29;20201;-77
2021/08/19 09:55:29;;;;;;;2.67;1.00;;;19.30;99.90;;;;;;4932941;29;20235;-77
2021/08/19 09:57:59;;;;;;;1.33;1.00;;;19.40;99.90;;;;;;4955268;29;20177;-77
2021/08/19 10:00:38;;;;;;;1.03;1.00;;;19.50;99.90;;;;;;4937676;29;20781;-77
2021/08/19 10:03:04;;;;;;;1.13;0.80;;;19.50;99.90;;;;;;4954201;29;20208;-77
2021/08/19 10:05:30;;;;;;;1.97;1.13;;;19.60;99.90;;;;;;4954743;29;20185;-77
2021/08/19 10:07:59;;;;;;;2.93;0.97;;;19.60;99.90;;;;;;4937071;29;20276;-77
2021/08/19 10:10:26;;;;;;;2.63;0.93;;;19.60;99.90;;;;;;4952823;29;20713;-77
2021/08/19 10:12:54;;;;;;;1.70;1.00;;;19.70;99.90;;;;;;4953204;29;20721;-77
2021/08/19 10:15:21;;;;;;;1.03;0.80;;;19.70;99.90;;;;;;4953712;29;20205;-76
2021/08/19 10:17:50;;;;;;;2.27;1.07;;;19.80;99.90;;;;;;4952200;29;20200;-78
2021/08/19 10:20:19;;;;;;;0.63;0.60;;;19.80;99.90;;;;;;4937223;29;20179;-78
2021/08/19 10:22:48;;;;;;;1.13;0.90;;;19.80;99.90;;;;;;4937309;29;20256;-77
2021/08/19 10:25:17;;;;;;;1.17;1.07;;;19.80;99.90;;;;;;4921995;29;20190;-77
2021/08/19 10:27:43;;;;;;;1.23;1.13;;;19.80;99.90;;;;;;4921891;29;20190;-77
2021/08/19 10:30:22;;;;;;;1.03;0.93;;;19.80;99.90;;;;;;4938858;29;20256;-77
2021/08/19 10:32:52;;;;;;;1.10;0.93;;;19.70;99.90;;;;;;4919845;29;20225;-77
2021/08/19 10:35:26;;;;;;;0.90;0.70;;;19.80;99.90;;;;;;4917070;29;20205;-77
2021/08/19 10:37:54;;;;;;;0.83;0.83;;;20.00;99.90;;;;;;4941385;29;20185;-77
2021/08/19 10:40:20;;;;;;;1.40;1.00;;;20.20;99.90;;;;;;4929394;29;20528;-78
2021/08/19 10:42:56;;;;;;;1.30;1.00;;;20.40;99.90;;;;;;4936530;29;20194;-77
2021/08/19 10:45:28;;;;;;;1.17;1.03;;;20.50;99.90;;;;;;4933834;29;20182;-78
2021/08/19 10:48:06;;;;;;;1.47;0.97;;;20.60;99.90;;;;;;4924195;29;20265;-78
2021/08/19 10:50:35;;;;;;;0.93;0.90;;;20.60;99.90;;;;;;4912356;29;20197;-78
2021/08/19 10:53:21;;;;;;;2.67;0.93;;;20.40;99.90;;;;;;4929717;29;20216;-77
2021/08/19 10:55:52;;;;;;;1.73;1.10;;;20.50;99.90;;;;;;4930693;29;20213;-77
2021/08/19 10:58:22;;;;;;;1.37;1.00;;;20.80;99.90;;;;;;4931911;29;20197;-77
2021/08/19 11:00:48;;;;;;;2.00;1.13;;;;;;;;;;4932142;29;20221;-77
2021/08/19 11:03:46;;;;;;;1.30;1.20;;;21.00;99.90;;;;;;4933031;29;20198;-77
2021/08/19 11:06:14;;;;;;;1.70;1.50;;;21.20;99.90;;;;;;4900432;29;20253;-77
2021/08/19 11:08:41;;;;;;;1.40;1.10;;;21.30;99.90;;;;;;4929932;29;20182;-77
2021/08/19 11:11:07;;;;;;;1.80;1.37;;;21.10;99.90;;;;;;4918280;29;20177;-77
2021/08/19 11:13:35;;;;;;;1.57;1.20;;;21.10;99.90;;;;;;4915826;29;20223;-77
2021/08/19 11:16:11;;;;;;;1.53;1.37;;;21.20;99.90;;;;;;4928106;29;20552;-77
2021/08/19 11:18:38;;;;;;;2.70;1.30;;;21.20;99.90;;;;;;4923002;29;20189;-77
2021/08/19 11:21:06;;;;;;;1.20;1.10;;;21.30;99.90;;;;;;4932592;29;20665;-77
2021/08/19 11:23:44;;;;;;;1.87;1.37;;;21.30;99.90;;;;;;4931578;29;20724;-77
2021/08/19 11:26:12;;;;;;;1.50;1.40;;;21.50;99.90;;;;;;4930377;29;20380;-77
2021/08/19 11:28:41;;;;;;;1.50;1.40;;;21.50;99.90;;;;;;4929378;29;20179;-78
2021/08/19 11:31:21;;;;;;;1.40;1.30;;;21.60;99.90;;;;;;4929261;29;20189;-77
2021/08/19 11:34:07;;;;;;;1.80;1.20;;;21.70;99.90;;;;;;4924754;29;20221;-77
2021/08/19 11:36:34;;;;;;;1.63;1.20;;;21.90;99.90;;;;;;4917773;29;20797;-77
2021/08/19 11:39:04;;;;;;;1.30;1.20;;;21.90;99.90;;;;;;4929789;29;20182;-77
2021/08/19 11:41:30;;;;;;;1.80;1.47;;;21.90;99.90;;;;;;4921970;29;20207;-77
2021/08/19 11:44:13;;;;;;;2.40;1.47;;;21.80;99.90;;;;;;4932901;29;20248;-77
2021/08/19 11:46:39;;;;;;;1.63;1.43;;;21.80;99.90;;;;;;4933956;29;20741;-77
2021/08/19 11:49:11;;;;;;;1.37;1.20;;;22.00;99.90;;;;;;4930129;29;20273;-77
2021/08/19 11:51:39;;;;;;;1.87;1.30;;;22.10;99.90;;;;;;4917369;29;20193;-77
2021/08/19 11:54:13;;;;;;;1.20;1.10;;;22.20;99.90;;;;;;4929353;29;20214;-77
2021/08/19 11:56:45;;;;;;;1.50;1.40;;;22.20;99.90;;;;;;4923129;29;20665;-77
2021/08/19 11:59:18;;;;;;;1.37;1.27;;;22.10;99.90;;;;;;4918312;29;20189;-77
2021/08/19 12:01:52;;;;;;;1.47;1.37;;;22.00;99.90;;;;;;4934350;29;20700;-77
2021/08/19 12:04:28;;;;;;;4.10;1.43;;;22.10;99.90;;;;;;4930497;29;20204;-77
2021/08/19 12:06:58;;;;;;;1.50;1.40;;;22.20;99.90;;;;;;4933876;29;20190;-77
2021/08/19 12:09:24;;;;;;;2.60;1.50;;;22.30;99.90;;;;;;4929372;29;20734;-77
2021/08/19 12:11:51;;;;;;;1.50;1.40;;;22.30;99.90;;;;;;4934563;29;20198;-77
2021/08/19 12:14:24;;;;;;;2.13;1.60;;;22.20;99.90;;;;;;4936588;29;20240;-76
2021/08/19 12:16:52;;;;;;;1.37;1.27;;;22.30;99.90;;;;;;4927489;29;20213;-76
2021/08/19 12:19:23;;;;;;;2.40;1.40;;;22.40;99.90;;;;;;4914727;29;20186;-74
2021/08/19 12:21:52;;;;;;;2.13;1.20;;;22.40;99.90;;;;;;4931745;29;20181;-77
2021/08/19 12:24:23;;;;;;;1.90;1.30;;;22.30;99.90;;;;;;4920681;29;20201;-76
2021/08/19 12:27:11;;;;;;;1.57;1.47;;;22.30;99.90;;;;;;4914488;29;20189;-77
2021/08/19 12:29:50;;;;;;;1.43;1.33;;;22.20;99.90;;;;;;4929231;29;20188;-76
2021/08/19 12:32:37;;;;;;;1.40;1.30;;;22.30;99.90;;;;;;4933145;29;20184;-76
2021/08/19 12:35:10;;;;;;;1.67;1.53;;;22.30;99.90;;;;;;4928389;29;20190;-77
2021/08/19 12:37:38;;;;;;;1.73;1.57;;;22.20;99.90;;;;;;4930774;29;20182;-76
2021/08/19 12:40:15;;;;;;;1.73;1.60;;;22.10;99.90;;;;;;4916958;29;20496;-76
2021/08/19 12:42:43;;;;;;;1.50;1.40;;;22.30;99.90;;;;;;4918663;29;20204;-76
2021/08/19 12:45:17;;;;;;;1.80;1.70;;;22.40;99.90;;;;;;4927144;29;20177;-76
2021/08/19 12:47:47;;;;;;;2.13;1.70;;;22.50;99.90;;;;;;4915237;29;20272;-77
2021/08/19 12:50:19;;;;;;;3.40;1.70;;;22.70;99.90;;;;;;4924058;29;20170;-77
2021/08/19 12:52:47;;;;;;;1.77;1.50;;;22.70;99.90;;;;;;4912711;29;20205;-76